sensor_id;sensor_type;location;lat;lon;timestamp;P1;durP1;ratioP1;P2;durP2;ratioP2
25667;SDS011;18003;-33.830;151.202;2023-03-01T00:02:07;7.22;;;6.53;;
25667;SDS011;18003;-33.830;151.202;2023-03-01T00:04:37;7.10;;;6.10;;
25667;SDS011;18003;-33.830;151.202;2023-03-01T00:07:08;7.10;;;6.00;;
25667;SDS011;18003;-33.830;151.202;2023-03-01T00:09:37;7.80;;;5.83;;
25667;SDS011;18003;-33.830;151.202;2023-03-01T00:12:07;6.62;;;5.78;;
25667;SDS011;18003;-33.830;151.202;2023-03-01T00:14:37;8.40;;;6.40;;
25667;SDS011;18003;-33.830;151.202;2023-03-01T00:17:07;9.68;;;6.60;;
25667;SDS011;18003;-33.830;151.202;2023-03-01T00:19:37;9.30;;;5.75;;
25667;SDS011;18003;-33.830;151.202;2023-03-01T00:22:07;8.05;;;6.25;;
25667;SDS011;18003;-33.830;151.202;2023-03-01T00:24:37;9.48;;;6.00;;
25667;SDS011;18003;-33.830;151.202;2023-03-01T00:27:08;7.65;;;5.72;;
25667;SDS011;18003;-33.830;151.202;2023-03-01T00:29:38;6.40;;;5.50;;
25667;SDS011;18003;-33.830;151.202;2023-03-01T00:32:08;8.55;;;5.45;;
25667;SDS011;18003;-33.830;151.202;2023-03-01T00:34:38;9.85;;;5.95;;
25667;SDS011;18003;-33.830;151.202;2023-03-01T00:37:08;7.65;;;5.80;;
25667;SDS011;18003;-33.830;151.202;2023-03-01T00:39:38;9.80;;;5.25;;
25667;SDS011;18003;-33.830;151.202;2023-03-01T00:42:08;6.15;;;5.45;;
25667;SDS011;18003;-33.830;151.202;2023-03-01T00:44:38;5.65;;;4.92;;
25667;SDS011;18003;-33.830;151.202;2023-03-01T00:47:08;11.12;;;5.90;;
25667;SDS011;18003;-33.830;151.202;2023-03-01T00:49:38;7.62;;;5.15;;
25667;SDS011;18003;-33.830;151.202;2023-03-01T00:52:08;7.67;;;4.87;;
25667;SDS011;18003;-33.830;151.202;2023-03-01T00:54:38;6.50;;;4.92;;
25667;SDS011;18003;-33.830;151.202;2023-03-01T00:57:08;8.75;;;4.92;;
25667;SDS011;18003;-33.830;151.202;2023-03-01T00:59:38;9.78;;;5.28;;
25667;SDS011;18003;-33.830;151.202;2023-03-01T01:02:08;5.65;;;4.80;;
25667;SDS011;18003;-33.830;151.202;2023-03-01T01:04:38;6.75;;;4.58;;
25667;SDS011;18003;-33.830;151.202;2023-03-01T01:07:08;9.25;;;5.22;;
25667;SDS011;18003;-33.830;151.202;2023-03-01T01:09:38;8.00;;;5.20;;
25667;SDS011;18003;-33.830;151.202;2023-03-01T01:12:08;7.25;;;4.65;;
25667;SDS011;18003;-33.830;151.202;2023-03-01T01:14:38;6.55;;;4.50;;
25667;SDS011;18003;-33.830;151.202;2023-03-01T01:17:08;8.53;;;4.30;;
25667;SDS011;18003;-33.830;151.202;2023-03-01T01:19:38;4.95;;;3.87;;
25667;SDS011;18003;-33.830;151.202;2023-03-01T01:22:08;5.90;;;3.75;;
25667;SDS011;18003;-33.830;151.202;2023-03-01T01:24:38;6.75;;;4.30;;
25667;SDS011;18003;-33.830;151.202;2023-03-01T01:27:08;5.20;;;3.80;;
25667;SDS011;18003;-33.830;151.202;2023-03-01T01:29:39;6.50;;;3.80;;
25667;SDS011;18003;-33.830;151.202;2023-03-01T01:32:09;6.10;;;3.83;;
25667;SDS011;18003;-33.830;151.202;2023-03-01T01:34:39;7.78;;;3.35;;
25667;SDS011;18003;-33.830;151.202;2023-03-01T01:37:08;4.50;;;3.77;;
25667;SDS011;18003;-33.830;151.202;2023-03-01T01:39:38;4.53;;;3.62;;
25667;SDS011;18003;-33.830;151.202;2023-03-01T01:42:17;6.75;;;4.03;;
25667;SDS011;18003;-33.830;151.202;2023-03-01T01:45:15;5.15;;;3.52;;
25667;SDS011;18003;-33.830;151.202;2023-03-01T01:47:16;6.70;;;3.50;;
25667;SDS011;18003;-33.830;151.202;2023-03-01T01:49:53;6.45;;;3.30;;
25667;SDS011;18003;-33.830;151.202;2023-03-01T01:52:25;3.87;;;2.92;;
25667;SDS011;18003;-33.830;151.202;2023-03-01T01:55:22;5.95;;;3.22;;
25667;SDS011;18003;-33.830;151.202;2023-03-01T01:57:50;4.42;;;3.00;;
25667;SDS011;18003;-33.830;151.202;2023-03-01T02:00:27;7.33;;;2.92;;
25667;SDS011;18003;-33.830;151.202;2023-03-01T02:03:08;4.67;;;2.92;;
25667;SDS011;18003;-33.830;151.202;2023-03-01T02:08:36;6.65;;;3.00;;
25667;SDS011;18003;-33.830;151.202;2023-03-01T02:11:08;4.62;;;2.70;;
25667;SDS011;18003;-33.830;151.202;2023-03-01T02:13:39;6.75;;;2.85;;
25667;SDS011;18003;-33.830;151.202;2023-03-01T02:16:11;3.37;;;2.58;;
25667;SDS011;18003;-33.830;151.202;2023-03-01T02:18:42;4.55;;;2.70;;
25667;SDS011;18003;-33.830;151.202;2023-03-01T02:24:02;3.92;;;2.80;;
25667;SDS011;18003;-33.830;151.202;2023-03-01T02:26:40;5.17;;;2.90;;
25667;SDS011;18003;-33.830;151.202;2023-03-01T02:29:09;5.40;;;3.08;;
25667;SDS011;18003;-33.830;151.202;2023-03-01T02:31:40;4.80;;;2.95;;
25667;SDS011;18003;-33.830;151.202;2023-03-01T02:34:15;3.83;;;2.90;;
25667;SDS011;18003;-33.830;151.202;2023-03-01T02:36:49;4.53;;;2.92;;
25667;SDS011;18003;-33.830;151.202;2023-03-01T02:39:22;4.35;;;2.52;;
25667;SDS011;18003;-33.830;151.202;2023-03-01T02:41:58;3.83;;;2.85;;
25667;SDS011;18003;-33.830;151.202;2023-03-01T02:44:29;5.00;;;3.22;;
25667;SDS011;18003;-33.830;151.202;2023-03-01T02:47:00;4.45;;;3.30;;
25667;SDS011;18003;-33.830;151.202;2023-03-01T02:49:31;3.10;;;2.90;;
25667;SDS011;18003;-33.830;151.202;2023-03-01T02:52:08;3.60;;;2.90;;
25667;SDS011;18003;-33.830;151.202;2023-03-01T02:54:41;4.22;;;2.90;;
25667;SDS011;18003;-33.830;151.202;2023-03-01T02:57:09;3.15;;;2.87;;
25667;SDS011;18003;-33.830;151.202;2023-03-01T02:59:39;3.40;;;2.45;;
25667;SDS011;18003;-33.830;151.202;2023-03-01T03:02:23;3.08;;;2.65;;
25667;SDS011;18003;-33.830;151.202;2023-03-01T03:05:04;3.27;;;2.50;;
25667;SDS011;18003;-33.830;151.202;2023-03-01T03:07:36;4.33;;;2.58;;
25667;SDS011;18003;-33.830;151.202;2023-03-01T03:10:08;4.83;;;2.98;;
25667;SDS011;18003;-33.830;151.202;2023-03-01T03:12:39;4.05;;;2.90;;
25667;SDS011;18003;-33.830;151.202;2023-03-01T03:15:10;2.90;;;2.27;;
25667;SDS011;18003;-33.830;151.202;2023-03-01T03:17:40;2.70;;;2.50;;
25667;SDS011;18003;-33.830;151.202;2023-03-01T03:20:11;2.87;;;2.43;;
25667;SDS011;18003;-33.830;151.202;2023-03-01T03:22:43;5.33;;;2.40;;
25667;SDS011;18003;-33.830;151.202;2023-03-01T03:25:13;2.90;;;2.40;;
25667;SDS011;18003;-33.830;151.202;2023-03-01T03:27:44;3.90;;;2.50;;
25667;SDS011;18003;-33.830;151.202;2023-03-01T03:30:16;2.65;;;2.17;;
25667;SDS011;18003;-33.830;151.202;2023-03-01T03:32:49;2.50;;;2.30;;
25667;SDS011;18003;-33.830;151.202;2023-03-01T03:35:27;3.00;;;2.70;;
25667;SDS011;18003;-33.830;151.202;2023-03-01T03:37:59;3.12;;;2.33;;
25667;SDS011;18003;-33.830;151.202;2023-03-01T03:40:36;4.12;;;2.47;;
25667;SDS011;18003;-33.830;151.202;2023-03-01T03:43:08;2.40;;;2.20;;
25667;SDS011;18003;-33.830;151.202;2023-03-01T03:45:38;3.20;;;2.10;;
25667;SDS011;18003;-33.830;151.202;2023-03-01T03:48:08;2.42;;;1.85;;
25667;SDS011;18003;-33.830;151.202;2023-03-01T03:50:39;4.22;;;1.98;;
25667;SDS011;18003;-33.830;151.202;2023-03-01T03:53:11;4.53;;;2.10;;
25667;SDS011;18003;-33.830;151.202;2023-03-01T03:55:40;3.22;;;2.25;;
25667;SDS011;18003;-33.830;151.202;2023-03-01T03:58:11;4.08;;;1.98;;
25667;SDS011;18003;-33.830;151.202;2023-03-01T04:00:41;4.80;;;2.13;;
25667;SDS011;18003;-33.830;151.202;2023-03-01T04:03:13;5.90;;;2.08;;
25667;SDS011;18003;-33.830;151.202;2023-03-01T04:05:45;5.85;;;1.90;;
25667;SDS011;18003;-33.830;151.202;2023-03-01T04:08:16;3.22;;;1.52;;
25667;SDS011;18003;-33.830;151.202;2023-03-01T04:10:51;2.83;;;1.55;;
25667;SDS011;18003;-33.830;151.202;2023-03-01T04:13:22;2.45;;;1.60;;
25667;SDS011;18003;-33.830;151.202;2023-03-01T04:15:53;3.27;;;1.60;;
25667;SDS011;18003;-33.830;151.202;2023-03-01T04:18:23;3.33;;;1.40;;
25667;SDS011;18003;-33.830;151.202;2023-03-01T04:20:53;3.45;;;1.50;;
25667;SDS011;18003;-33.830;151.202;2023-03-01T04:23:24;2.60;;;1.52;;
25667;SDS011;18003;-33.830;151.202;2023-03-01T04:25:55;4.00;;;1.50;;
25667;SDS011;18003;-33.830;151.202;2023-03-01T04:30:55;2.62;;;1.47;;
25667;SDS011;18003;-33.830;151.202;2023-03-01T04:33:27;4.20;;;1.98;;
25667;SDS011;18003;-33.830;151.202;2023-03-01T04:35:57;3.77;;;1.92;;
25667;SDS011;18003;-33.830;151.202;2023-03-01T04:38:29;3.17;;;2.10;;
25667;SDS011;18003;-33.830;151.202;2023-03-01T04:40:59;6.28;;;1.92;;
25667;SDS011;18003;-33.830;151.202;2023-03-01T04:43:30;4.22;;;1.80;;
25667;SDS011;18003;-33.830;151.202;2023-03-01T04:46:01;4.05;;;2.42;;
25667;SDS011;18003;-33.830;151.202;2023-03-01T04:48:39;4.62;;;2.25;;
25667;SDS011;18003;-33.830;151.202;2023-03-01T04:51:10;3.85;;;1.98;;
25667;SDS011;18003;-33.830;151.202;2023-03-01T04:53:41;5.30;;;2.10;;
25667;SDS011;18003;-33.830;151.202;2023-03-01T04:56:11;4.47;;;1.80;;
25667;SDS011;18003;-33.830;151.202;2023-03-01T04:58:42;5.40;;;2.20;;
25667;SDS011;18003;-33.830;151.202;2023-03-01T05:01:16;20.23;;;2.25;;
25667;SDS011;18003;-33.830;151.202;2023-03-01T05:03:44;4.15;;;1.70;;
25667;SDS011;18003;-33.830;151.202;2023-03-01T05:06:16;4.10;;;1.95;;
25667;SDS011;18003;-33.830;151.202;2023-03-01T05:08:46;5.42;;;1.80;;
25667;SDS011;18003;-33.830;151.202;2023-03-01T05:11:16;3.47;;;1.82;;
25667;SDS011;18003;-33.830;151.202;2023-03-01T05:13:48;5.67;;;1.90;;
25667;SDS011;18003;-33.830;151.202;2023-03-01T05:16:18;4.78;;;2.00;;
25667;SDS011;18003;-33.830;151.202;2023-03-01T05:18:48;3.87;;;2.00;;
25667;SDS011;18003;-33.830;151.202;2023-03-01T05:21:18;3.62;;;2.05;;
25667;SDS011;18003;-33.830;151.202;2023-03-01T05:23:48;5.33;;;2.22;;
25667;SDS011;18003;-33.830;151.202;2023-03-01T05:26:19;7.57;;;2.33;;
25667;SDS011;18003;-33.830;151.202;2023-03-01T05:28:50;5.53;;;1.80;;
25667;SDS011;18003;-33.830;151.202;2023-03-01T05:31:21;7.25;;;2.33;;
25667;SDS011;18003;-33.830;151.202;2023-03-01T05:33:52;5.45;;;2.00;;
25667;SDS011;18003;-33.830;151.202;2023-03-01T05:36:23;8.63;;;2.45;;
25667;SDS011;18003;-33.830;151.202;2023-03-01T05:38:53;4.92;;;2.05;;
25667;SDS011;18003;-33.830;151.202;2023-03-01T05:41:23;6.12;;;2.27;;
25667;SDS011;18003;-33.830;151.202;2023-03-01T05:43:53;6.17;;;2.17;;
25667;SDS011;18003;-33.830;151.202;2023-03-01T05:46:22;4.85;;;2.10;;
25667;SDS011;18003;-33.830;151.202;2023-03-01T05:48:53;8.05;;;2.35;;
25667;SDS011;18003;-33.830;151.202;2023-03-01T05:51:22;6.62;;;2.45;;
25667;SDS011;18003;-33.830;151.202;2023-03-01T05:53:52;4.30;;;2.30;;
25667;SDS011;18003;-33.830;151.202;2023-03-01T05:56:22;6.45;;;2.15;;
25667;SDS011;18003;-33.830;151.202;2023-03-01T05:58:52;5.75;;;2.12;;
25667;SDS011;18003;-33.830;151.202;2023-03-01T06:01:22;6.53;;;2.20;;
25667;SDS011;18003;-33.830;151.202;2023-03-01T06:03:52;7.00;;;2.30;;
25667;SDS011;18003;-33.830;151.202;2023-03-01T06:06:23;6.37;;;2.42;;
25667;SDS011;18003;-33.830;151.202;2023-03-01T06:08:53;6.80;;;2.40;;
25667;SDS011;18003;-33.830;151.202;2023-03-01T06:11:23;7.62;;;2.35;;
25667;SDS011;18003;-33.830;151.202;2023-03-01T06:13:53;5.80;;;2.60;;
25667;SDS011;18003;-33.830;151.202;2023-03-01T06:16:23;7.15;;;2.65;;
25667;SDS011;18003;-33.830;151.202;2023-03-01T06:18:53;6.77;;;3.00;;
25667;SDS011;18003;-33.830;151.202;2023-03-01T06:21:23;10.68;;;2.85;;
25667;SDS011;18003;-33.830;151.202;2023-03-01T06:23:54;11.03;;;2.87;;
25667;SDS011;18003;-33.830;151.202;2023-03-01T06:26:23;8.88;;;2.95;;
25667;SDS011;18003;-33.830;151.202;2023-03-01T06:28:54;10.18;;;3.08;;
25667;SDS011;18003;-33.830;151.202;2023-03-01T06:31:25;8.80;;;2.98;;
25667;SDS011;18003;-33.830;151.202;2023-03-01T06:33:55;9.75;;;3.20;;
25667;SDS011;18003;-33.830;151.202;2023-03-01T06:36:24;9.50;;;3.10;;
25667;SDS011;18003;-33.830;151.202;2023-03-01T06:38:55;8.88;;;2.98;;
25667;SDS011;18003;-33.830;151.202;2023-03-01T06:41:25;7.40;;;2.98;;
25667;SDS011;18003;-33.830;151.202;2023-03-01T06:43:55;7.75;;;2.85;;
25667;SDS011;18003;-33.830;151.202;2023-03-01T06:46:25;10.38;;;3.33;;
25667;SDS011;18003;-33.830;151.202;2023-03-01T06:48:55;9.60;;;4.10;;
25667;SDS011;18003;-33.830;151.202;2023-03-01T06:51:25;12.53;;;3.45;;
25667;SDS011;18003;-33.830;151.202;2023-03-01T06:53:55;10.53;;;3.50;;
25667;SDS011;18003;-33.830;151.202;2023-03-01T06:56:25;9.13;;;3.25;;
25667;SDS011;18003;-33.830;151.202;2023-03-01T06:58:55;7.37;;;3.35;;
25667;SDS011;18003;-33.830;151.202;2023-03-01T07:01:25;10.03;;;3.12;;
25667;SDS011;18003;-33.830;151.202;2023-03-01T07:03:55;9.85;;;3.37;;
25667;SDS011;18003;-33.830;151.202;2023-03-01T07:06:25;10.18;;;3.70;;
25667;SDS011;18003;-33.830;151.202;2023-03-01T07:08:55;11.93;;;3.70;;
25667;SDS011;18003;-33.830;151.202;2023-03-01T07:11:25;9.28;;;3.30;;
25667;SDS011;18003;-33.830;151.202;2023-03-01T07:13:55;8.38;;;3.30;;
25667;SDS011;18003;-33.830;151.202;2023-03-01T07:16:26;10.30;;;3.15;;
25667;SDS011;18003;-33.830;151.202;2023-03-01T07:18:56;12.20;;;3.90;;
25667;SDS011;18003;-33.830;151.202;2023-03-01T07:21:26;10.58;;;3.37;;
25667;SDS011;18003;-33.830;151.202;2023-03-01T07:23:56;9.30;;;3.30;;
25667;SDS011;18003;-33.830;151.202;2023-03-01T07:26:26;7.28;;;2.95;;
25667;SDS011;18003;-33.830;151.202;2023-03-01T07:28:58;15.63;;;3.50;;
25667;SDS011;18003;-33.830;151.202;2023-03-01T07:31:31;7.67;;;3.08;;
25667;SDS011;18003;-33.830;151.202;2023-03-01T07:34:01;9.13;;;3.10;;
25667;SDS011;18003;-33.830;151.202;2023-03-01T07:36:31;8.65;;;2.92;;
25667;SDS011;18003;-33.830;151.202;2023-03-01T07:39:01;6.25;;;3.15;;
25667;SDS011;18003;-33.830;151.202;2023-03-01T07:41:32;8.10;;;3.00;;
25667;SDS011;18003;-33.830;151.202;2023-03-01T07:44:02;10.95;;;3.67;;
25667;SDS011;18003;-33.830;151.202;2023-03-01T07:46:32;7.40;;;3.02;;
25667;SDS011;18003;-33.830;151.202;2023-03-01T07:49:03;10.87;;;3.00;;
25667;SDS011;18003;-33.830;151.202;2023-03-01T07:51:33;10.98;;;2.90;;
25667;SDS011;18003;-33.830;151.202;2023-03-01T07:54:03;11.10;;;3.33;;
25667;SDS011;18003;-33.830;151.202;2023-03-01T07:56:33;8.93;;;3.17;;
25667;SDS011;18003;-33.830;151.202;2023-03-01T07:59:03;5.62;;;2.65;;
25667;SDS011;18003;-33.830;151.202;2023-03-01T08:01:33;8.15;;;2.80;;
25667;SDS011;18003;-33.830;151.202;2023-03-01T08:04:03;8.48;;;3.02;;
25667;SDS011;18003;-33.830;151.202;2023-03-01T08:06:34;9.93;;;3.57;;
25667;SDS011;18003;-33.830;151.202;2023-03-01T08:09:04;9.53;;;2.95;;
25667;SDS011;18003;-33.830;151.202;2023-03-01T08:11:35;10.20;;;3.08;;
25667;SDS011;18003;-33.830;151.202;2023-03-01T08:14:05;7.65;;;3.08;;
25667;SDS011;18003;-33.830;151.202;2023-03-01T08:16:36;9.78;;;2.70;;
25667;SDS011;18003;-33.830;151.202;2023-03-01T08:19:10;10.15;;;3.55;;
25667;SDS011;18003;-33.830;151.202;2023-03-01T08:21:40;10.78;;;3.37;;
25667;SDS011;18003;-33.830;151.202;2023-03-01T08:24:10;10.30;;;3.20;;
25667;SDS011;18003;-33.830;151.202;2023-03-01T08:26:40;12.58;;;3.58;;
25667;SDS011;18003;-33.830;151.202;2023-03-01T08:29:10;14.70;;;3.17;;
25667;SDS011;18003;-33.830;151.202;2023-03-01T08:31:40;11.43;;;3.33;;
25667;SDS011;18003;-33.830;151.202;2023-03-01T08:34:12;11.68;;;3.52;;
25667;SDS011;18003;-33.830;151.202;2023-03-01T08:36:43;10.40;;;3.65;;
25667;SDS011;18003;-33.830;151.202;2023-03-01T08:39:14;7.65;;;3.25;;
25667;SDS011;18003;-33.830;151.202;2023-03-01T08:41:45;12.60;;;3.37;;
25667;SDS011;18003;-33.830;151.202;2023-03-01T08:44:16;10.03;;;3.33;;
25667;SDS011;18003;-33.830;151.202;2023-03-01T08:46:47;8.98;;;3.45;;
25667;SDS011;18003;-33.830;151.202;2023-03-01T08:49:19;7.55;;;3.00;;
25667;SDS011;18003;-33.830;151.202;2023-03-01T08:51:49;8.03;;;3.50;;
25667;SDS011;18003;-33.830;151.202;2023-03-01T08:54:20;9.43;;;3.10;;
25667;SDS011;18003;-33.830;151.202;2023-03-01T08:56:50;9.20;;;2.98;;
25667;SDS011;18003;-33.830;151.202;2023-03-01T08:59:20;9.50;;;3.10;;
25667;SDS011;18003;-33.830;151.202;2023-03-01T09:01:50;10.28;;;3.17;;
25667;SDS011;18003;-33.830;151.202;2023-03-01T09:04:20;10.80;;;3.22;;
25667;SDS011;18003;-33.830;151.202;2023-03-01T09:06:51;9.25;;;2.90;;
25667;SDS011;18003;-33.830;151.202;2023-03-01T09:09:21;9.70;;;3.47;;
25667;SDS011;18003;-33.830;151.202;2023-03-01T09:11:51;9.20;;;3.12;;
25667;SDS011;18003;-33.830;151.202;2023-03-01T09:14:21;9.07;;;3.30;;
25667;SDS011;18003;-33.830;151.202;2023-03-01T09:16:51;9.95;;;3.20;;
25667;SDS011;18003;-33.830;151.202;2023-03-01T09:19:21;8.60;;;3.42;;
25667;SDS011;18003;-33.830;151.202;2023-03-01T09:21:51;6.45;;;2.90;;
25667;SDS011;18003;-33.830;151.202;2023-03-01T09:24:23;8.08;;;3.08;;
25667;SDS011;18003;-33.830;151.202;2023-03-01T09:26:53;9.63;;;3.30;;
25667;SDS011;18003;-33.830;151.202;2023-03-01T09:29:24;6.83;;;3.25;;
25667;SDS011;18003;-33.830;151.202;2023-03-01T09:31:54;7.80;;;3.47;;
25667;SDS011;18003;-33.830;151.202;2023-03-01T09:34:24;9.40;;;3.40;;
25667;SDS011;18003;-33.830;151.202;2023-03-01T09:36:54;9.50;;;3.67;;
25667;SDS011;18003;-33.830;151.202;2023-03-01T09:39:26;8.53;;;3.20;;
25667;SDS011;18003;-33.830;151.202;2023-03-01T09:42:00;6.75;;;3.00;;
25667;SDS011;18003;-33.830;151.202;2023-03-01T09:44:36;10.70;;;4.17;;
25667;SDS011;18003;-33.830;151.202;2023-03-01T09:47:31;8.10;;;3.50;;
25667;SDS011;18003;-33.830;151.202;2023-03-01T09:50:14;8.48;;;2.98;;
25667;SDS011;18003;-33.830;151.202;2023-03-01T09:52:50;8.38;;;2.80;;
25667;SDS011;18003;-33.830;151.202;2023-03-01T09:55:17;10.10;;;3.37;;
25667;SDS011;18003;-33.830;151.202;2023-03-01T09:57:59;9.80;;;3.15;;
25667;SDS011;18003;-33.830;151.202;2023-03-01T10:00:43;10.00;;;3.50;;
25667;SDS011;18003;-33.830;151.202;2023-03-01T10:03:16;9.50;;;3.27;;
25667;SDS011;18003;-33.830;151.202;2023-03-01T10:06:04;11.00;;;2.90;;
25667;SDS011;18003;-33.830;151.202;2023-03-01T10:08:46;9.18;;;3.20;;
25667;SDS011;18003;-33.830;151.202;2023-03-01T10:11:35;9.95;;;3.15;;
25667;SDS011;18003;-33.830;151.202;2023-03-01T10:14:14;10.90;;;3.20;;
25667;SDS011;18003;-33.830;151.202;2023-03-01T10:19:42;8.73;;;3.22;;
25667;SDS011;18003;-33.830;151.202;2023-03-01T10:22:20;5.50;;;2.95;;
25667;SDS011;18003;-33.830;151.202;2023-03-01T10:24:58;9.00;;;2.75;;
25667;SDS011;18003;-33.830;151.202;2023-03-01T10:27:52;9.33;;;3.05;;
25667;SDS011;18003;-33.830;151.202;2023-03-01T10:30:19;10.18;;;3.30;;
25667;SDS011;18003;-33.830;151.202;2023-03-01T10:32:58;10.23;;;2.90;;
25667;SDS011;18003;-33.830;151.202;2023-03-01T10:35:28;9.15;;;2.77;;
25667;SDS011;18003;-33.830;151.202;2023-03-01T10:38:10;7.45;;;3.05;;
25667;SDS011;18003;-33.830;151.202;2023-03-01T10:41:00;9.05;;;3.20;;
25667;SDS011;18003;-33.830;151.202;2023-03-01T10:43:25;6.97;;;2.42;;
25667;SDS011;18003;-33.830;151.202;2023-03-01T10:45:56;9.08;;;2.70;;
25667;SDS011;18003;-33.830;151.202;2023-03-01T10:48:27;7.33;;;2.80;;
25667;SDS011;18003;-33.830;151.202;2023-03-01T10:53:38;8.00;;;2.80;;
25667;SDS011;18003;-33.830;151.202;2023-03-01T10:56:15;7.20;;;2.80;;
25667;SDS011;18003;-33.830;151.202;2023-03-01T10:59:04;5.45;;;2.30;;
25667;SDS011;18003;-33.830;151.202;2023-03-01T11:01:27;5.73;;;2.67;;
25667;SDS011;18003;-33.830;151.202;2023-03-01T11:06:40;8.20;;;3.15;;
25667;SDS011;18003;-33.830;151.202;2023-03-01T11:09:22;5.45;;;2.70;;
25667;SDS011;18003;-33.830;151.202;2023-03-01T11:11:59;7.20;;;2.65;;
25667;SDS011;18003;-33.830;151.202;2023-03-01T11:14:30;6.37;;;2.58;;
25667;SDS011;18003;-33.830;151.202;2023-03-01T11:17:03;9.75;;;2.90;;
25667;SDS011;18003;-33.830;151.202;2023-03-01T11:19:49;6.05;;;3.08;;
25667;SDS011;18003;-33.830;151.202;2023-03-01T11:22:19;8.15;;;2.83;;
25667;SDS011;18003;-33.830;151.202;2023-03-01T11:24:50;7.80;;;2.83;;
25667;SDS011;18003;-33.830;151.202;2023-03-01T11:27:28;7.60;;;2.70;;
25667;SDS011;18003;-33.830;151.202;2023-03-01T11:35:27;5.58;;;2.70;;
25667;SDS011;18003;-33.830;151.202;2023-03-01T11:38:02;7.10;;;2.98;;
25667;SDS011;18003;-33.830;151.202;2023-03-01T11:40:35;7.33;;;2.85;;
25667;SDS011;18003;-33.830;151.202;2023-03-01T11:46:18;9.33;;;3.12;;
25667;SDS011;18003;-33.830;151.202;2023-03-01T11:57:43;7.80;;;2.83;;
25667;SDS011;18003;-33.830;151.202;2023-03-01T12:09:06;9.23;;;2.98;;
25667;SDS011;18003;-33.830;151.202;2023-03-01T12:14:21;9.78;;;2.67;;
25667;SDS011;18003;-33.830;151.202;2023-03-01T12:17:01;8.05;;;2.75;;
25667;SDS011;18003;-33.830;151.202;2023-03-01T12:22:28;8.03;;;2.90;;
25667;SDS011;18003;-33.830;151.202;2023-03-01T12:28:02;9.50;;;3.12;;
25667;SDS011;18003;-33.830;151.202;2023-03-01T12:30:46;8.73;;;2.62;;
25667;SDS011;18003;-33.830;151.202;2023-03-01T12:39:13;9.85;;;3.10;;
25667;SDS011;18003;-33.830;151.202;2023-03-01T12:44:56;7.95;;;3.20;;
25667;SDS011;18003;-33.830;151.202;2023-03-01T12:52:56;8.80;;;3.05;;
25667;SDS011;18003;-33.830;151.202;2023-03-01T12:55:31;7.75;;;2.52;;
25667;SDS011;18003;-33.830;151.202;2023-03-01T13:06:29;8.75;;;3.10;;
25667;SDS011;18003;-33.830;151.202;2023-03-01T13:11:44;8.18;;;3.25;;
25667;SDS011;18003;-33.830;151.202;2023-03-01T13:16:53;7.17;;;3.05;;
25667;SDS011;18003;-33.830;151.202;2023-03-01T13:19:23;7.20;;;2.70;;
25667;SDS011;18003;-33.830;151.202;2023-03-01T13:21:58;8.25;;;2.92;;
25667;SDS011;18003;-33.830;151.202;2023-03-01T13:29:49;9.70;;;3.33;;
25667;SDS011;18003;-33.830;151.202;2023-03-01T13:32:24;11.13;;;3.20;;
25667;SDS011;18003;-33.830;151.202;2023-03-01T13:35:08;11.10;;;2.92;;
25667;SDS011;18003;-33.830;151.202;2023-03-01T13:37:49;11.00;;;3.00;;
25667;SDS011;18003;-33.830;151.202;2023-03-01T13:42:52;9.08;;;3.33;;
25667;SDS011;18003;-33.830;151.202;2023-03-01T13:47:56;9.30;;;3.47;;
25667;SDS011;18003;-33.830;151.202;2023-03-01T13:50:33;8.55;;;3.25;;
25667;SDS011;18003;-33.830;151.202;2023-03-01T13:53:06;8.93;;;3.35;;
25667;SDS011;18003;-33.830;151.202;2023-03-01T13:55:47;8.98;;;3.17;;
25667;SDS011;18003;-33.830;151.202;2023-03-01T13:58:16;13.15;;;3.37;;
25667;SDS011;18003;-33.830;151.202;2023-03-01T14:01:06;8.88;;;3.08;;
25667;SDS011;18003;-33.830;151.202;2023-03-01T14:03:40;6.90;;;3.00;;
25667;SDS011;18003;-33.830;151.202;2023-03-01T14:06:14;10.68;;;3.22;;
25667;SDS011;18003;-33.830;151.202;2023-03-01T14:08:45;6.90;;;3.20;;
25667;SDS011;18003;-33.830;151.202;2023-03-01T14:19:37;8.28;;;3.00;;
25667;SDS011;18003;-33.830;151.202;2023-03-01T14:25:16;10.38;;;3.50;;
25667;SDS011;18003;-33.830;151.202;2023-03-01T14:27:38;9.35;;;2.80;;
25667;SDS011;18003;-33.830;151.202;2023-03-01T14:32:51;10.25;;;3.37;;
25667;SDS011;18003;-33.830;151.202;2023-03-01T14:35:23;9.83;;;3.50;;
25667;SDS011;18003;-33.830;151.202;2023-03-01T14:37:53;8.78;;;3.58;;
25667;SDS011;18003;-33.830;151.202;2023-03-01T14:40:25;6.70;;;3.45;;
25667;SDS011;18003;-33.830;151.202;2023-03-01T14:42:56;9.53;;;3.40;;
25667;SDS011;18003;-33.830;151.202;2023-03-01T14:45:28;10.85;;;3.40;;
25667;SDS011;18003;-33.830;151.202;2023-03-01T14:48:01;7.97;;;3.33;;
25667;SDS011;18003;-33.830;151.202;2023-03-01T14:50:34;10.80;;;3.85;;
25667;SDS011;18003;-33.830;151.202;2023-03-01T14:53:05;8.28;;;3.42;;
25667;SDS011;18003;-33.830;151.202;2023-03-01T14:55:38;10.32;;;3.40;;
25667;SDS011;18003;-33.830;151.202;2023-03-01T14:58:13;14.07;;;3.60;;
25667;SDS011;18003;-33.830;151.202;2023-03-01T15:00:48;10.03;;;3.50;;
25667;SDS011;18003;-33.830;151.202;2023-03-01T15:06:04;10.38;;;3.83;;
25667;SDS011;18003;-33.830;151.202;2023-03-01T15:08:35;7.42;;;2.90;;
25667;SDS011;18003;-33.830;151.202;2023-03-01T15:11:23;9.60;;;3.30;;
25667;SDS011;18003;-33.830;151.202;2023-03-01T15:13:54;9.45;;;3.12;;
25667;SDS011;18003;-33.830;151.202;2023-03-01T15:16:29;11.25;;;3.30;;
25667;SDS011;18003;-33.830;151.202;2023-03-01T15:19:15;8.15;;;3.22;;
25667;SDS011;18003;-33.830;151.202;2023-03-01T15:21:39;8.25;;;3.30;;
25667;SDS011;18003;-33.830;151.202;2023-03-01T15:24:06;10.40;;;3.42;;
25667;SDS011;18003;-33.830;151.202;2023-03-01T15:26:51;8.70;;;3.67;;
25667;SDS011;18003;-33.830;151.202;2023-03-01T15:29:24;8.70;;;3.37;;
25667;SDS011;18003;-33.830;151.202;2023-03-01T15:32:00;9.73;;;3.25;;
25667;SDS011;18003;-33.830;151.202;2023-03-01T15:34:37;10.10;;;3.43;;
25667;SDS011;18003;-33.830;151.202;2023-03-01T15:37:35;10.23;;;3.47;;
25667;SDS011;18003;-33.830;151.202;2023-03-01T15:39:55;10.25;;;3.52;;
25667;SDS011;18003;-33.830;151.202;2023-03-01T15:47:57;7.20;;;3.33;;
25667;SDS011;18003;-33.830;151.202;2023-03-01T15:50:28;9.30;;;3.55;;
25667;SDS011;18003;-33.830;151.202;2023-03-01T15:53:00;10.15;;;3.70;;
25667;SDS011;18003;-33.830;151.202;2023-03-01T15:55:33;9.93;;;3.67;;
25667;SDS011;18003;-33.830;151.202;2023-03-01T15:58:04;10.95;;;3.75;;
25667;SDS011;18003;-33.830;151.202;2023-03-01T16:00:39;9.38;;;3.60;;
25667;SDS011;18003;-33.830;151.202;2023-03-01T16:03:10;9.05;;;3.05;;
25667;SDS011;18003;-33.830;151.202;2023-03-01T16:05:39;9.98;;;3.42;;
25667;SDS011;18003;-33.830;151.202;2023-03-01T16:08:09;11.18;;;3.70;;
25667;SDS011;18003;-33.830;151.202;2023-03-01T16:10:40;9.23;;;3.55;;
25667;SDS011;18003;-33.830;151.202;2023-03-01T16:13:14;8.75;;;3.62;;
25667;SDS011;18003;-33.830;151.202;2023-03-01T16:15:44;9.65;;;3.30;;
25667;SDS011;18003;-33.830;151.202;2023-03-01T16:18:14;11.53;;;3.58;;
25667;SDS011;18003;-33.830;151.202;2023-03-01T16:20:44;7.80;;;3.67;;
25667;SDS011;18003;-33.830;151.202;2023-03-01T16:23:15;10.27;;;3.83;;
25667;SDS011;18003;-33.830;151.202;2023-03-01T16:25:45;7.80;;;3.10;;
25667;SDS011;18003;-33.830;151.202;2023-03-01T16:28:15;9.20;;;3.62;;